Time;durP1;ratioP1;P1;durP2;ratioP2;P2;SDS_P1;SDS_P2;PMS_P1;PMS_P2;Temp;Humidity;BMP_temperature;BMP_pressure;BME280_temperature;BME280_humidity;BME280_pressure;Samples;Min_cycle;Max_cycle;Signal;HPM_P1;HPM_P2
2021/04/26 00:00:21;;;;;;;0.10;0.10;;;4.70;58.80;;;6.87;48.84;102559.63;5005580;28;97965;-66
2021/04/26 00:02:49;;;;;;;0.55;0.55;;;4.70;58.90;;;6.83;49.66;102559.31;5004663;28;97426;-66
2021/04/26 00:05:18;;;;;;;3.70;0.73;;;4.70;58.90;;;6.76;49.62;102566.63;5007636;28;96775;-66
2021/04/26 00:07:45;;;;;;;0.15;0.15;;;4.60;58.90;;;6.71;49.11;102563.00;5003357;28;97160;-66
2021/04/26 00:10:15;;;;;;;0.20;0.20;;;4.60;58.90;;;6.66;50.17;102561.03;5003986;28;98292;-66
2021/04/26 00:12:46;;;;;;;0.38;0.35;;;4.60;58.90;;;6.65;50.10;102556.75;5004551;28;98163;-67
2021/04/26 00:15:19;;;;;;;0.10;0.10;;;4.50;58.90;;;6.66;49.38;102561.03;5000175;28;97176;-67
2021/04/26 00:17:49;;;;;;;0.20;0.20;;;4.50;59.00;;;6.64;49.33;102560.47;4998227;28;96850;-66
2021/04/26 00:20:21;;;;;;;0.20;0.20;;;4.50;59.00;;;6.67;49.26;102559.19;5002133;28;98316;-66
2021/04/26 00:22:49;;;;;;;0.30;0.30;;;4.50;59.10;;;6.65;49.74;102550.63;5006724;28;98064;-66
2021/04/26 00:25:17;;;;;;;0.52;0.52;;;4.40;59.00;;;6.65;49.33;102550.63;5002357;28;97385;-68
2021/04/26 00:27:46;;;;;;;0.20;0.20;;;4.40;59.00;;;6.55;50.12;102551.19;5004993;28;96920;-66
2021/04/26 00:30:18;;;;;;;0.55;0.40;;;4.40;59.10;;;6.47;50.09;102556.88;4997457;28;98061;-66
2021/04/26 00:32:47;;;;;;;0.25;0.25;;;4.40;59.00;;;6.47;49.97;102558.72;5006541;28;96883;-68
2021/04/26 00:35:16;;;;;;;0.10;0.10;;;4.40;59.10;;;6.43;49.88;102553.03;4997789;28;97115;-66
2021/04/26 00:37:45;;;;;;;0.20;0.20;;;4.30;59.00;;;6.44;49.15;102551.19;4998910;28;97021;-66
2021/04/26 00:40:17;;;;;;;0.45;0.45;;;4.30;59.10;;;6.41;50.03;102556.97;5003284;28;97302;-66
2021/04/26 00:42:46;;;;;;;0.25;0.25;;;4.30;59.10;;;6.40;49.75;102556.16;5001122;28;97171;-66
2021/04/26 00:45:18;;;;;;;0.38;0.38;;;4.30;59.10;;;6.38;49.55;102558.22;5000433;28;96953;-66
2021/04/26 00:47:48;;;;;;;0.20;0.20;;;4.30;59.10;;;6.36;50.16;102554.19;5006776;28;97453;-67
2021/04/26 00:50:22;;;;;;;0.55;0.55;;;4.20;59.00;;;6.28;50.21;102552.66;5004502;28;98265;-66
2021/04/26 00:52:52;;;;;;;0.20;0.20;;;4.20;59.10;;;6.23;49.61;102547.22;5001652;28;97825;-66
2021/04/26 00:55:24;;;;;;;0.10;0.10;;;4.20;59.10;;;6.19;49.58;102550.56;4998772;28;96735;-67
2021/04/26 00:57:54;;;;;;;0.30;0.30;;;4.10;59.10;;;6.13;49.92;102540.84;4999752;28;97124;-66
2021/04/26 01:00:25;;;;;;;0.20;0.20;;;4.10;59.10;;;6.09;49.63;102536.19;5001385;28;96991;-66
2021/04/26 01:02:53;;;;;;;0.32;0.28;;;4.10;59.20;;;6.05;50.23;102535.84;5002209;28;97819;-66
2021/04/26 01:05:24;;;;;;;0.20;0.20;;;4.00;59.10;;;6.07;50.23;102527.63;5000231;28;97586;-67
2021/04/26 01:07:53;;;;;;;0.10;0.10;;;4.00;59.20;;;6.07;50.01;102532.94;5002114;28;96895;-66
2021/04/26 01:10:30;;;;;;;2.15;0.25;;;3.90;59.20;;;6.02;49.98;102525.66;5012826;28;96880;-66
2021/04/26 01:13:28;;;;;;;;;;;3.90;59.20;;;5.94;50.21;102525.97;5000999;28;98195;-66
2021/04/26 01:16:09;;;;;;;0.20;0.20;;;3.90;59.20;;;5.95;49.95;102518.81;4997849;28;97653;-66
2021/04/26 01:18:50;;;;;;;0.10;0.10;;;3.90;59.20;;;5.94;49.99;102515.31;4998082;28;97063;-66
2021/04/26 01:22:06;;;;;;;0.30;0.30;;;3.80;59.20;;;5.89;49.75;102519.72;5003523;28;98588;-66
2021/04/26 01:24:56;;;;;;;0.10;0.10;;;3.80;59.20;;;5.86;49.75;102515.66;5017038;28;98848;-66
2021/04/26 01:27:45;;;;;;;0.20;0.20;;;3.80;59.30;;;5.83;50.03;102508.13;4998791;28;97960;-66
2021/04/26 01:30:18;;;;;;;1.10;0.52;;;3.70;59.30;;;5.81;50.12;102512.06;5000262;28;96892;-66
2021/04/26 01:33:15;;;;;;;0.20;0.20;;;3.70;59.30;;;5.79;49.79;102506.16;5002388;28;98102;-66
2021/04/26 01:35:48;;;;;;;0.52;0.52;;;3.70;59.30;;;5.74;50.29;102503.34;5003336;28;99198;-66
2021/04/26 01:38:21;;;;;;;0.10;0.10;;;3.60;59.30;;;5.67;50.02;102494.66;4998450;28;97790;-66
2021/04/26 01:40:53;;;;;;;0.40;0.40;;;3.60;59.30;;;5.60;50.14;102494.72;5001662;28;97363;-66
2021/04/26 01:43:25;;;;;;;1.27;1.13;;;3.60;59.40;;;5.55;50.50;102489.28;4999412;28;98267;-66
2021/04/26 01:45:57;;;;;;;3.85;1.65;;;3.50;59.40;;;5.49;50.45;102492.03;5014366;28;97008;-66
2021/04/26 01:48:31;;;;;;;0.68;0.68;;;3.50;59.30;;;5.46;50.01;102490.66;5007056;28;97025;-66
2021/04/26 01:51:04;;;;;;;0.20;0.20;;;3.50;59.40;;;5.44;50.22;102481.25;5005008;28;97609;-66
2021/04/26 01:53:33;;;;;;;0.30;0.30;;;3.40;59.40;;;5.46;50.30;102477.34;5001739;28;98210;-66
2021/04/26 01:56:08;;;;;;;0.20;0.20;;;3.40;59.40;;;5.45;50.51;102475.75;4998989;28;97921;-66
2021/04/26 01:58:49;;;;;;;0.17;0.17;;;3.40;59.40;;;5.42;49.89;102483.34;4997366;28;96936;-66
2021/04/26 02:01:23;;;;;;;0.10;0.10;;;3.40;59.50;;;5.42;50.64;102478.03;5009368;28;96880;-66
2021/04/26 02:03:59;;;;;;;0.17;0.17;;;3.40;59.50;;;5.39;50.10;102473.94;5000962;28;97997;-66
2021/04/26 02:07:01;;;;;;;0.65;0.65;;;3.40;59.40;;;5.33;50.21;102476.72;5019081;27;97033;-66
2021/04/26 02:09:35;;;;;;;1.30;0.47;;;3.30;59.40;;;5.32;50.53;102480.41;4998115;28;96927;-66
2021/04/26 02:12:14;;;;;;;0.10;0.10;;;3.30;59.50;;;5.30;50.23;102471.88;5005333;28;98523;-66
2021/04/26 02:14:47;;;;;;;0.40;0.40;;;3.30;59.50;;;5.27;50.18;102467.78;5004530;28;97560;-66
2021/04/26 02:17:17;;;;;;;0.20;0.20;;;3.30;59.50;;;5.27;50.59;102467.78;5013171;28;98000;-66
2021/04/26 02:19:47;;;;;;;0.32;0.32;;;3.30;59.50;;;5.23;50.15;102469.28;4999962;28;97124;-67
2021/04/26 02:22:16;;;;;;;0.20;0.20;;;3.30;59.50;;;5.25;50.22;102471.69;5000149;28;97349;-66
2021/04/26 02:24:57;;;;;;;0.17;0.17;;;3.20;59.40;;;5.23;50.17;102461.31;4995981;28;98273;-66
2021/04/26 02:27:30;;;;;;;0.20;0.20;;;3.20;59.50;;;5.23;50.37;102461.31;4995921;28;97739;-67
2021/04/26 02:29:58;;;;;;;1.27;0.47;;;3.20;59.50;;;5.24;50.02;102460.28;5001211;28;98570;-67
2021/04/26 02:32:48;;;;;;;0.10;0.10;;;3.20;59.60;;;5.22;50.11;102465.00;4999887;28;97270;-66
2021/04/26 02:35:53;;;;;;;0.88;0.77;;;3.20;59.60;;;5.17;50.25;102458.72;4997883;28;98078;-66
2021/04/26 02:38:29;;;;;;;0.20;0.20;;;3.10;59.50;;;5.12;50.28;102451.44;5002501;28;97940;-66
2021/04/26 02:41:06;;;;;;;0.38;0.38;;;3.10;59.50;;;5.13;50.41;102452.25;5002599;28;97458;-66
2021/04/26 02:43:40;;;;;;;0.20;0.20;;;3.10;59.60;;;5.13;49.96;102455.72;5002791;28;97676;-66
2021/04/26 02:46:11;;;;;;;0.20;0.20;;;3.00;59.60;;;5.10;49.94;102458.84;5010248;28;97864;-66
2021/04/26 02:48:43;;;;;;;0.40;0.40;;;3.00;59.60;;;5.04;50.17;102449.06;4998870;28;97501;-66
2021/04/26 02:51:17;;;;;;;0.38;0.38;;;3.00;59.70;;;5.02;49.93;102451.16;4998213;28;96974;-66
2021/04/26 02:53:46;;;;;;;0.20;0.20;;;3.00;59.70;;;5.03;50.02;102446.66;5009692;28;97423;-66
2021/04/26 02:56:18;;;;;;;0.20;0.20;;;3.00;59.70;;;5.02;50.01;102439.72;4995945;28;99069;-66
2021/04/26 02:58:53;;;;;;;0.03;0.03;;;2.90;59.70;;;4.99;50.00;102440.97;5000274;28;97953;-66
2021/04/26 03:01:27;;;;;;;0.20;0.20;;;2.90;59.80;;;4.96;50.67;102438.75;4997074;28;97243;-66
2021/04/26 03:04:20;;;;;;;0.45;0.45;;;2.90;59.80;;;4.95;50.53;102428.34;4992294;28;96991;-67
2021/04/26 03:06:53;;;;;;;0.20;0.20;;;2.90;59.80;;;4.95;50.46;102429.19;4996161;28;97663;-66
2021/04/26 03:09:31;;;;;;;0.20;0.20;;;2.90;59.80;;;4.96;50.06;102425.50;4998110;28;98009;-66
2021/04/26 03:12:02;;;;;;;0.30;0.30;;;2.90;59.80;;;4.92;50.56;102424.31;5002088;28;97289;-66
2021/04/26 03:14:42;;;;;;;0.30;0.30;;;2.80;59.70;;;4.90;49.98;102426.38;4999523;28;97070;-66
2021/04/26 03:17:13;;;;;;;0.20;0.20;;;2.80;59.80;;;4.89;50.29;102422.09;4994999;28;97350;-67
2021/04/26 03:19:47;;;;;;;0.20;0.20;;;2.80;59.80;;;4.88;50.52;102415.19;5002466;28;97664;-67
2021/04/26 03:22:18;;;;;;;0.20;0.20;;;2.80;59.90;;;4.87;50.57;102421.53;4997023;28;96836;-66
2021/04/26 03:24:48;;;;;;;5.57;1.40;;;2.70;59.90;;;4.85;50.32;102415.63;5015311;28;99935;-66
2021/04/26 03:27:20;;;;;;;0.20;0.20;;;2.70;59.90;;;4.81;50.74;102416.28;5014235;28;100956;-66
2021/04/26 03:29:52;;;;;;;0.40;0.40;;;2.70;59.90;;;4.79;50.54;102415.69;5003407;28;96998;-67
2021/04/26 03:32:26;;;;;;;1.00;1.00;;;2.70;59.90;;;4.78;49.79;102409.56;5002059;28;96875;-66
2021/04/26 03:35:08;;;;;;;1.00;1.00;;;2.70;59.90;;;4.75;50.94;102417.19;5007076;28;97015;-66
2021/04/26 03:37:46;;;;;;;1.38;1.27;;;2.70;59.90;;;4.68;50.99;102417.25;5003534;28;97770;-67
2021/04/26 03:40:21;;;;;;;0.20;0.20;;;2.60;59.90;;;4.67;50.31;102412.97;5007945;28;97614;-66
2021/04/26 03:42:53;;;;;;;0.20;0.20;;;2.60;60.00;;;4.69;50.64;102410.91;5014019;28;97023;-66
2021/04/26 03:45:23;;;;;;;0.20;0.20;;;2.60;60.00;;;4.67;49.89;102402.34;5019812;28;97115;-66
2021/04/26 03:48:10;;;;;;;0.20;0.20;;;2.60;60.00;;;4.64;49.92;102402.81;4998487;28;96870;-66
2021/04/26 03:51:04;;;;;;;7.53;0.80;;;2.60;60.00;;;4.65;50.28;102400.94;4998269;28;98146;-66
2021/04/26 03:53:51;;;;;;;0.50;0.50;;;2.60;60.00;;;4.64;50.59;102405.47;5003877;28;97105;-66
2021/04/26 03:56:27;;;;;;;0.20;0.20;;;2.60;60.00;;;4.63;50.57;102400.34;5002670;28;97266;-66
2021/04/26 03:58:55;;;;;;;3.40;1.75;;;2.50;60.00;;;4.64;50.02;102400.16;5007554;28;97879;-66
2021/04/26 04:01:25;;;;;;;0.30;0.30;;;2.50;60.00;;;4.64;50.55;102401.97;5000698;28;97709;-66
2021/04/26 04:03:53;;;;;;;0.35;0.35;;;2.50;60.00;;;4.64;50.77;102401.97;5004029;28;96917;-66
2021/04/26 04:06:22;;;;;;;0.20;0.20;;;2.50;60.00;;;4.62;50.66;102402.22;5003306;28;96755;-66
2021/04/26 04:09:10;;;;;;;0.20;0.20;;;2.50;60.00;;;4.61;50.36;102405.91;5000441;28;98157;-66
2021/04/26 04:11:58;;;;;;;0.10;0.10;;;2.50;60.00;;;4.62;49.86;102394.25;5006137;28;97879;-66
2021/04/26 04:14:38;;;;;;;0.30;0.30;;;2.50;60.10;;;4.61;49.86;102394.47;5007127;28;96971;-66
2021/04/26 04:17:08;;;;;;;0.40;0.40;;;2.50;60.10;;;4.63;50.23;102398.53;4997527;28;96999;-66
2021/04/26 04:19:36;;;;;;;0.40;0.40;;;2.50;60.10;;;4.72;50.01;102397.19;5000884;28;98216;-66
2021/04/26 04:22:10;;;;;;;0.28;0.28;;;2.50;60.10;;;4.69;49.59;102394.97;4998683;28;97239;-66
2021/04/26 04:24:41;;;;;;;1.00;0.95;;;2.50;60.10;;;4.71;50.07;102394.78;4998632;28;96907;-66
2021/04/26 04:27:09;;;;;;;0.30;0.30;;;2.50;60.10;;;4.74;50.16;102389.81;5002380;28;97178;-66
2021/04/26 04:29:37;;;;;;;0.20;0.20;;;2.50;60.10;;;4.78;50.00;102392.84;5006511;28;98156;-65
2021/04/26 04:32:31;;;;;;;0.13;0.13;;;2.50;60.10;;;4.76;49.64;102382.44;5001573;28;97757;-66
2021/04/26 04:35:17;;;;;;;0.52;0.52;;;2.60;60.10;;;4.79;49.97;102387.28;4998198;28;97340;-66
2021/04/26 04:38:14;;;;;;;0.30;0.30;;;2.60;60.10;;;4.82;49.48;102386.03;5008439;27;96993;-66
2021/04/26 04:41:04;;;;;;;0.40;0.40;;;2.60;60.10;;;4.84;49.89;102390.09;4998632;28;98116;-66
2021/04/26 04:43:33;;;;;;;1.48;0.70;;;2.60;60.00;;;4.88;49.89;102382.50;5019773;28;96860;-66
2021/04/26 04:46:06;;;;;;;0.20;0.20;;;2.70;60.10;;;4.94;49.72;102382.41;4999221;28;97829;-66
2021/04/26 04:48:41;;;;;;;2.08;1.67;;;2.70;60.00;;;5.04;49.47;102371.25;5002364;28;96819;-66
2021/04/26 04:51:15;;;;;;;0.15;0.15;;;2.70;60.00;;;5.07;49.79;102379.56;4999386;28;97830;-67
2021/04/26 04:53:53;;;;;;;0.22;0.22;;;2.80;60.00;;;5.09;49.53;102380.16;4997881;28;97625;-67
2021/04/26 04:56:24;;;;;;;0.45;0.45;;;2.80;60.00;;;5.15;49.58;102376.63;5000591;28;97256;-66
2021/04/26 04:58:52;;;;;;;3.53;2.08;;;2.80;60.00;;;5.21;49.15;102365.06;4998347;28;96945;-67
2021/04/26 05:01:22;;;;;;;0.20;0.20;;;2.90;60.00;;;5.29;49.38;102371.91;5004802;28;98813;-66
2021/04/26 05:04:08;;;;;;;0.28;0.28;;;2.90;60.00;;;5.28;49.38;102363.13;4998813;28;96919;-67
2021/04/26 05:06:55;;;;;;;0.30;0.30;;;3.00;60.00;;;5.35;49.52;102366.50;5000823;28;96772;-66
2021/04/26 05:09:41;;;;;;;0.30;0.30;;;3.00;59.90;;;5.43;48.80;102368.84;5004390;28;96979;-66
2021/04/26 05:12:14;;;;;;;0.45;0.45;;;3.00;60.50;;;5.49;49.08;102361.78;5000070;28;97404;-66
2021/04/26 05:14:57;;;;;;;0.88;0.75;;;3.10;59.80;;;5.55;49.16;102361.69;4998256;28;96940;-66
2021/04/26 05:17:26;;;;;;;0.55;0.55;;;3.10;59.80;;;5.60;49.16;102358.34;5002152;28;96854;-66
2021/04/26 05:19:55;;;;;;;0.57;0.57;;;3.20;59.80;;;5.71;48.90;102370.84;5002225;28;97039;-66
2021/04/26 05:22:23;;;;;;;0.20;0.20;;;3.30;59.80;;;5.75;49.12;102364.84;4996366;28;97403;-66
2021/04/26 05:25:03;;;;;;;0.30;0.30;;;3.30;59.80;;;5.85;48.78;102365.09;5014593;28;97964;-66
2021/04/26 05:27:32;;;;;;;0.77;0.77;;;3.40;59.80;;;5.91;48.88;102366.84;5001691;28;96802;-66
2021/04/26 05:30:00;;;;;;;15.02;0.45;;;3.50;59.80;;;6.00;48.53;102365.44;5002192;28;98306;-66
2021/04/26 05:32:31;;;;;;;1.35;0.57;;;3.50;59.80;;;6.07;49.21;102370.66;5012646;28;97882;-66
2021/04/26 05:35:08;;;;;;;0.20;0.20;;;3.60;59.80;;;6.23;48.27;102370.75;5004315;28;97797;-66
2021/04/26 05:37:37;;;;;;;0.30;0.30;;;3.70;59.80;;;6.42;47.99;102374.91;5003103;28;96794;-66
2021/04/26 05:40:07;;;;;;;0.30;0.30;;;3.80;59.70;;;6.59;48.72;102373.94;5002037;28;96912;-66
2021/04/26 05:42:39;;;;;;;0.30;0.30;;;4.00;59.60;;;7.03;47.76;102367.06;5001045;28;97289;-66
2021/04/26 05:45:09;;;;;;;0.20;0.20;;;4.20;59.50;;;7.73;46.42;102359.22;4999702;28;103247;-66
2021/04/26 05:47:41;;;;;;;0.20;0.20;;;4.30;59.40;;;7.67;46.25;102362.09;5001799;28;97632;-66
2021/04/26 05:50:09;;;;;;;0.15;0.15;;;4.50;59.50;;;7.55;47.18;102364.00;5016251;28;96911;-66
2021/04/26 05:52:37;;;;;;;0.30;0.30;;;4.70;59.40;;;7.52;48.07;102358.34;5002236;28;101625;-66
2021/04/26 05:55:06;;;;;;;0.40;0.40;;;4.80;59.50;;;7.63;48.70;102357.47;4997694;28;97771;-66
2021/04/26 05:57:33;;;;;;;0.13;0.13;;;5.00;59.60;;;7.87;48.25;102354.38;5011720;28;96849;-66
2021/04/26 06:00:05;;;;;;;0.28;0.28;;;5.40;59.60;;;8.14;48.83;102356.13;5001602;28;97252;-66
2021/04/26 06:02:40;;;;;;;0.22;0.22;;;6.10;59.10;;;8.57;48.83;102356.19;4999512;28;98940;-66
2021/04/26 06:05:08;;;;;;;0.35;0.35;;;6.70;58.70;;;9.31;48.76;102356.19;4997329;28;97414;-66
2021/04/26 06:07:36;;;;;;;0.77;0.77;;;;;;;10.62;48.36;102355.22;4999347;28;97332;-68
2021/04/26 06:10:09;;;;;;;1.75;0.95;;;10.30;54.00;;;13.14;45.03;102344.44;5009674;28;97506;-67
2021/04/26 06:12:37;;;;;;;0.28;0.28;;;11.00;54.10;;;14.96;43.49;102346.59;4999965;28;99593;-67
2021/04/26 06:15:08;;;;;;;0.47;0.47;;;11.40;55.60;;;16.28;42.97;102350.34;4999162;28;97393;-68
2021/04/26 06:17:36;;;;;;;1.60;0.35;;;12.30;56.50;;;17.89;42.73;102357.25;5000775;28;97995;-68
2021/04/26 06:20:07;;;;;;;2.67;1.10;;;13.20;57.60;;;18.06;45.55;102343.75;5000694;28;97062;-68
2021/04/26 06:22:35;;;;;;;0.63;0.55;;;15.30;56.70;;;20.36;44.22;102337.22;5004449;28;98970;-68
2021/04/26 06:25:06;;;;;;;0.30;0.30;;;17.50;55.00;;;24.76;37.84;102327.47;5004182;28;98475;-69
2021/04/26 06:27:34;;;;;;;4.75;1.13;;;19.50;53.40;;;27.58;34.51;102331.44;5000500;28;96849;-69
2021/04/26 06:30:08;;;;;;;0.85;0.47;;;21.30;52.10;;;29.44;33.03;102331.56;4994831;28;97132;-66
2021/04/26 06:32:36;;;;;;;8.20;0.88;;;22.80;51.20;;;30.75;32.75;102331.97;5000085;28;97408;-66
2021/04/26 06:35:07;;;;;;;0.60;0.60;;;24.10;50.70;;;32.13;32.13;102334.38;4998525;28;97711;-67
2021/04/26 06:37:38;;;;;;;0.57;0.40;;;25.40;50.30;;;33.12;31.90;102326.59;5005049;28;96844;-66
2021/04/26 06:40:08;;;;;;;5.55;1.20;;;26.40;50.00;;;33.97;31.97;102319.38;5001544;28;96756;-67
2021/04/26 06:42:36;;;;;;;0.35;0.35;;;27.30;49.80;;;34.74;31.66;102318.00;5000457;28;98548;-67
2021/04/26 06:45:08;;;;;;;3.33;0.40;;;28.10;49.60;;;35.60;31.29;102313.72;4995967;28;97818;-67
2021/04/26 06:47:36;;;;;;;0.43;0.43;;;28.70;49.80;;;36.47;30.80;102315.06;5001261;28;96893;-68
2021/04/26 06:50:06;;;;;;;0.50;0.20;;;29.40;49.90;;;37.41;30.77;102310.72;5000919;28;97282;-67
2021/04/26 06:52:34;;;;;;;0.90;0.43;;;30.10;50.00;;;37.96;30.92;102310.91;4998673;28;97208;-67
2021/04/26 06:55:03;;;;;;;1.75;0.50;;;30.70;49.90;;;38.54;30.30;102306.47;5001647;28;97675;-67
2021/04/26 06:57:31;;;;;;;0.22;0.22;;;31.30;49.80;;;39.30;30.33;102301.97;4996006;28;96842;-68
2021/04/26 06:59:58;;;;;;;4.60;0.68;;;31.90;49.90;;;39.62;30.35;102302.25;4998853;28;97103;-70
2021/04/26 07:02:27;;;;;;;3.38;0.30;;;32.30;49.50;;;39.49;30.01;102298.78;5004475;28;98076;-69
2021/04/26 07:04:56;;;;;;;0.38;0.38;;;32.50;49.00;;;39.35;30.41;102295.75;4998378;28;96734;-68
2021/04/26 07:07:24;;;;;;;0.38;0.20;;;32.40;49.00;;;39.82;30.02;102299.81;4999194;28;96941;-68
2021/04/26 07:09:53;;;;;;;3.85;0.52;;;32.40;49.30;;;40.17;29.70;102292.69;5000688;28;98406;-68
2021/04/26 07:12:21;;;;;;;3.70;0.38;;;32.60;49.40;;;40.13;30.05;102289.25;4997900;28;98303;-67
2021/04/26 07:14:48;;;;;;;3.72;0.52;;;32.70;50.00;;;40.31;29.57;102289.28;5001101;28;97963;-68
2021/04/26 07:17:22;;;;;;;5.63;0.32;;;32.70;49.40;;;40.70;29.28;102294.72;4998643;28;96679;-69
2021/04/26 07:19:51;;;;;;;9.80;0.50;;;32.90;49.60;;;40.96;29.33;102281.84;5004875;28;97913;-70
2021/04/26 07:22:19;;;;;;;2.35;0.50;;;33.00;49.50;;;41.27;28.92;102281.59;4999894;28;98655;-69
2021/04/26 07:24:47;;;;;;;1.33;0.35;;;33.10;49.60;;;41.74;28.33;102279.63;5004832;28;96958;-70
2021/04/26 07:27:15;;;;;;;1.08;0.20;;;33.30;50.00;;;42.15;27.93;102276.66;5000449;28;96994;-70
2021/04/26 07:29:43;;;;;;;1.02;0.28;;;33.50;50.00;;;42.30;28.13;102271.81;5002543;28;96649;-70
2021/04/26 07:32:11;;;;;;;0.30;0.30;;;33.60;49.90;;;42.51;28.44;102270.69;5000527;28;98421;-70
2021/04/26 07:34:39;;;;;;;2.67;0.50;;;33.70;50.10;;;42.96;27.95;102273.06;5006271;28;98247;-69
2021/04/26 07:37:08;;;;;;;1.55;0.55;;;33.80;50.20;;;43.22;27.74;102266.31;5007232;28;97252;-70
2021/04/26 07:39:35;;;;;;;1.05;0.88;;;34.00;50.00;;;43.00;27.18;102272.84;5011450;28;97003;-70
2021/04/26 07:42:05;;;;;;;2.38;0.65;;;34.00;49.80;;;42.91;27.88;102264.50;5004359;28;97827;-69
2021/04/26 07:44:33;;;;;;;3.50;0.22;;;33.90;50.20;;;43.02;27.22;102267.47;4999809;28;97082;-69
2021/04/26 07:47:00;;;;;;;1.10;0.38;;;33.70;50.20;;;43.01;27.80;102268.75;5000925;28;98030;-69
2021/04/26 07:49:30;;;;;;;5.57;0.38;;;33.70;50.20;;;43.08;27.35;102260.66;5003562;28;97527;-69
2021/04/26 07:52:03;;;;;;;0.25;0.25;;;33.70;50.70;;;43.41;27.37;102264.00;4997837;28;97154;-70
2021/04/26 07:54:32;;;;;;;0.88;0.65;;;33.70;50.80;;;43.96;27.12;102250.59;5021032;28;96809;-69
2021/04/26 07:56:59;;;;;;;21.80;0.55;;;33.90;51.20;;;44.45;26.46;102258.91;5007444;28;97297;-69
2021/04/26 07:59:27;;;;;;;1.52;0.43;;;34.10;51.50;;;44.41;26.37;102252.66;5003238;28;97445;-69
2021/04/26 08:02:15;;;;;;;1.65;0.57;;;34.20;51.20;;;44.37;26.64;102246.47;5003755;28;97305;-70
2021/04/26 08:05:07;;;;;;;1.55;0.47;;;34.30;51.30;;;44.37;26.59;102240.81;4987408;28;97818;-69
2021/04/26 08:07:55;;;;;;;0.40;0.30;;;34.30;51.40;;;44.46;26.75;102247.06;4997772;28;98366;-69
2021/04/26 08:10:44;;;;;;;12.15;0.70;;;34.30;51.70;;;44.39;26.66;102239.03;4998640;28;97000;-69
2021/04/26 08:13:33;;;;;;;1.08;0.40;;;34.30;51.70;;;44.44;26.89;102229.03;4990036;28;96979;-69
2021/04/26 08:16:21;;;;;;;19.48;0.57;;;34.30;51.90;;;44.33;27.20;102235.38;4988963;28;97131;-69
2021/04/26 08:19:15;;;;;;;0.20;0.20;;;34.30;51.80;;;43.88;27.61;102229.72;5010560;28;97680;-69
2021/04/26 08:22:04;;;;;;;0.73;0.40;;;34.10;52.20;;;43.85;27.68;102236.38;4985977;28;99142;-69
2021/04/26 08:24:53;;;;;;;5.47;0.43;;;34.00;52.30;;;44.00;27.90;102234.25;4988861;28;96829;-69
2021/04/26 08:27:41;;;;;;;1.55;0.38;;;34.10;52.50;;;43.53;27.77;102226.16;4986635;28;98425;-68
2021/04/26 08:30:30;;;;;;;0.50;0.05;;;34.00;52.50;;;43.35;28.12;102223.63;4992260;28;97464;-68
2021/04/26 08:33:18;;;;;;;1.10;0.20;;;33.80;52.40;;;43.02;28.88;102225.16;4995792;28;97416;-67
2021/04/26 08:36:06;;;;;;;12.13;0.60;;;33.60;52.70;;;42.56;29.39;102221.31;4993264;28;97014;-66
2021/04/26 08:38:54;;;;;;;0.40;0.08;;;33.30;52.80;;;42.14;29.03;102218.75;4977184;28;97903;-69
2021/04/26 08:41:42;;;;;;;0.20;0.20;;;32.90;53.20;;;42.08;29.22;102214.25;4987958;28;96981;-70
2021/04/26 08:44:32;;;;;;;0.50;0.40;;;32.60;53.60;;;41.64;30.14;102216.16;5003942;28;96849;-69
2021/04/26 08:47:23;;;;;;;0.30;0.28;;;32.40;53.90;;;41.48;30.10;102217.34;4973255;28;97037;-69
2021/04/26 08:50:12;;;;;;;0.60;0.40;;;32.20;54.40;;;41.77;30.34;102211.84;4990256;28;96925;-69
2021/04/26 08:53:04;;;;;;;25.30;0.60;;;32.30;54.70;;;41.64;30.73;102221.78;5010643;28;96927;-69
2021/04/26 08:55:52;;;;;;;0.50;0.40;;;32.30;54.70;;;41.48;30.84;102213.75;4982518;28;97284;-69
2021/04/26 08:58:40;;;;;;;0.47;0.28;;;32.30;54.70;;;41.25;31.04;102208.13;4990156;28;96941;-71
2021/04/26 09:01:31;;;;;;;0.73;0.50;;;32.20;54.80;;;41.12;31.55;102202.69;5005869;28;96929;-70
2021/04/26 09:04:07;;;;;;;10.98;0.80;;;32.10;55.00;;;40.97;31.71;102195.41;5004990;28;96739;-69
2021/04/26 09:06:55;;;;;;;0.20;0.20;;;32.00;54.60;;;40.72;31.41;102201.44;5003512;28;97397;-68
2021/04/26 09:09:41;;;;;;;0.22;0.22;;;31.90;54.40;;;40.40;31.78;102197.31;5000374;28;97873;-69
2021/04/26 09:12:25;;;;;;;2.40;0.88;;;31.80;54.50;;;39.96;32.52;102190.47;5001077;28;97173;-69
2021/04/26 09:14:56;;;;;;;0.03;0.03;;;31.50;55.30;;;39.58;32.98;102192.91;4998854;28;96867;-68
2021/04/26 09:17:35;;;;;;;0.30;0.20;;;31.30;55.60;;;39.45;33.15;102183.84;5007973;28;96824;-68
2021/04/26 09:20:25;;;;;;;1.50;0.40;;;31.10;55.80;;;39.13;33.25;102180.81;5000106;28;97916;-67
2021/04/26 09:22:56;;;;;;;0.50;0.50;;;31.10;55.50;;;38.73;34.89;102174.38;5019878;28;100233;-67
2021/04/26 09:25:35;;;;;;;0.32;0.32;;;31.00;56.10;;;38.18;35.33;102180.91;5002763;28;97132;-67
2021/04/26 09:28:10;;;;;;;0.47;0.32;;;30.90;55.70;;;37.80;35.71;102173.88;4992383;28;98013;-67
2021/04/26 09:30:50;;;;;;;0.30;0.30;;;30.70;56.10;;;37.11;36.34;102172.25;5000689;28;97885;-68
2021/04/26 09:33:33;;;;;;;7.03;0.43;;;30.50;56.10;;;36.49;37.06;102174.97;5001909;28;97421;-69
2021/04/26 09:36:14;;;;;;;1.02;0.55;;;30.20;56.10;;;36.06;37.75;102174.63;4998814;28;97951;-69
2021/04/26 09:38:46;;;;;;;0.55;0.35;;;29.90;56.60;;;35.54;38.35;102167.63;4998616;28;96964;-68
2021/04/26 09:41:23;;;;;;;0.68;0.47;;;29.70;56.70;;;35.01;39.19;102157.78;5007840;28;96918;-68
2021/04/26 09:44:08;;;;;;;0.03;0.03;;;29.50;56.60;;;34.10;41.04;102161.75;5000033;28;98091;-67
2021/04/26 09:46:45;;;;;;;0.38;0.38;;;29.40;56.60;;;33.28;42.11;102154.47;4999402;28;96907;-67
2021/04/26 09:49:18;;;;;;;0.20;0.20;;;29.20;56.40;;;32.60;43.54;102158.63;4999531;28;97184;-67
2021/04/26 09:51:53;;;;;;;2.17;0.22;;;29.10;56.60;;;31.92;45.26;102165.38;4999521;28;97946;-65
2021/04/26 09:54:35;;;;;;;2.22;0.30;;;29.00;56.90;;;31.70;45.85;102155.72;5008213;28;96890;-67
2021/04/26 09:57:04;;;;;;;0.45;0.45;;;29.00;56.30;;;31.40;46.19;102158.34;4998621;28;100168;-67
2021/04/26 09:59:33;;;;;;;0.85;0.73;;;29.00;56.50;;;31.13;46.63;102160.13;4999330;28;97434;-69
2021/04/26 10:02:04;;;;;;;0.20;0.20;;;29.00;56.20;;;30.84;46.70;102150.41;4997621;28;96754;-67
2021/04/26 10:04:34;;;;;;;0.10;0.10;;;29.00;55.80;;;30.45;47.10;102151.00;5000057;28;97884;-67
2021/04/26 10:07:04;;;;;;;0.40;0.40;;;28.90;55.50;;;30.03;47.68;102140.13;4998040;28;96877;-66
2021/04/26 10:09:33;;;;;;;4.25;0.35;;;28.70;55.10;;;29.65;47.89;102140.94;5000667;28;96787;-67
2021/04/26 10:12:03;;;;;;;1.73;0.60;;;28.50;55.00;;;29.32;48.05;102138.56;4981871;28;98305;-68
2021/04/26 10:14:31;;;;;;;0.60;0.40;;;28.30;54.70;;;28.91;48.15;102134.59;4986432;28;97074;-67
2021/04/26 10:17:06;;;;;;;1.55;0.57;;;28.00;54.50;;;28.55;47.85;102132.13;5000907;28;97151;-65
2021/04/26 10:19:45;;;;;;;5.28;1.60;;;27.60;54.10;;;28.26;47.78;102135.91;5006556;28;97344;-66
2021/04/26 10:22:15;;;;;;;0.73;0.57;;;27.20;54.10;;;27.81;48.06;102126.22;4985162;28;99423;-66
2021/04/26 10:24:53;;;;;;;0.52;0.43;;;26.80;54.30;;;27.62;47.53;102115.47;4997572;28;96859;-66
2021/04/26 10:27:31;;;;;;;1.27;0.38;;;26.40;54.00;;;27.36;46.95;102129.44;5003852;28;96827;-65
2021/04/26 10:30:06;;;;;;;0.85;0.63;;;26.10;53.80;;;27.08;46.88;102122.84;4999060;28;97005;-69
2021/04/26 10:32:55;;;;;;;0.80;0.50;;;25.60;53.80;;;26.80;46.04;102121.81;4998134;28;97944;-67
2021/04/26 10:35:42;;;;;;;0.30;0.30;;;25.20;53.20;;;26.55;45.81;102129.00;5007137;28;97821;-67
2021/04/26 10:38:50;;;;;;;1.25;0.75;;;24.80;53.40;;;26.31;45.33;102124.75;5000119;28;96924;-65
2021/04/26 10:42:09;;;;;;;0.35;0.13;;;24.40;53.00;;;25.89;45.21;102118.69;4998912;28;96948;-69
2021/04/26 10:44:55;;;;;;;0.85;0.65;;;23.90;52.90;;;25.76;44.63;102116.50;5001640;28;98115;-69
2021/04/26 10:47:37;;;;;;;0.40;0.32;;;23.50;53.30;;;25.72;44.29;102107.44;5000911;28;99074;-69
2021/04/26 10:50:38;;;;;;;1.38;0.38;;;23.30;53.50;;;25.45;44.06;102108.59;5000743;28;96922;-68
2021/04/26 10:53:09;;;;;;;0.95;0.32;;;23.00;52.90;;;25.39;43.83;102110.06;5000739;28;98016;-66
2021/04/26 10:55:57;;;;;;;0.30;0.30;;;22.80;53.40;;;25.45;43.24;102100.34;5004934;28;97087;-66